Time;durP1;ratioP1;P1;durP2;ratioP2;P2;SDS_P1;SDS_P2;PMS_P1;PMS_P2;Temp;Humidity;BMP_temperature;BMP_pressure;BME280_temperature;BME280_humidity;BME280_pressure;Samples;Min_cycle;Max_cycle;Signal;HPM_P1;HPM_P2
2022/10/16 00:02:13;;;;;;;;;;;;;;;;;;4984312;28;19958;-56
2022/10/16 00:04:38;;;;;;;;;;;;;;;;;;4964643;28;20289;-56
2022/10/16 00:07:04;;;;;;;;;;;;;;;;;;4986603;28;19925;-57
2022/10/16 00:09:29;;;;;;;;;;;;;;;;;;4975443;28;19922;-56
2022/10/16 00:11:55;;;;;;;;;;;;;;;;;;4960639;28;20379;-57
2022/10/16 00:14:20;;;;;;;;;;;;;;;;;;4967216;28;19918;-56
2022/10/16 00:16:45;;;;;;;;;;;;;;;;;;4958124;28;19918;-56
2022/10/16 00:19:12;;;;;;;;;;;;;;;;;;4965563;28;20401;-56
2022/10/16 00:21:37;;;;;;;;;;;;;;;;;;4983521;28;19926;-57
2022/10/16 00:24:04;;;;;;;;;;;;;;;;;;4979207;28;19918;-57
2022/10/16 00:26:31;;;;;;;;;;;;;;;;;;4960910;28;19919;-57
2022/10/16 00:28:56;;;;;;;;;;;;;;;;;;4961853;28;20298;-57
2022/10/16 00:31:22;;;;;;;;;;;;;;;;;;4962400;28;20057;-56
2022/10/16 00:33:48;;;;;;;;;;;;;;;;;;4978148;28;19918;-56
2022/10/16 00:36:15;;;;;;;;;;;;;;;;;;4994657;28;20386;-57
2022/10/16 00:38:40;;;;;;;;;;;;;;;;;;4963863;28;19922;-56
2022/10/16 00:41:06;;;;;;;;;;;;;;;;;;4966517;28;19922;-56
2022/10/16 00:43:34;;;;;;;;;;;;;;;;;;4969490;28;19919;-56
2022/10/16 00:46:00;;;;;;;;;;;;;;;;;;4969314;28;20362;-56
2022/10/16 00:48:26;;;;;;;;;;;;;;;;;;4969891;28;19930;-56
2022/10/16 00:50:51;;;;;;;;;;;;;;;;;;4961998;28;19922;-56
2022/10/16 00:53:17;;;;;;;;;;;;;;;;;;4961716;28;19918;-56
2022/10/16 00:55:42;;;;;;;;;;;;;;;;;;4963733;28;19944;-56
2022/10/16 00:58:08;;;;;;;;;;;;;;;;;;4970171;28;19971;-55
2022/10/16 01:00:33;;;;;;;;;;;;;;;;;;4963961;28;19918;-55
2022/10/16 01:03:00;;;;;;;;;;;;;;;;;;4968547;28;20291;-56
2022/10/16 01:05:30;;;;;;;;;;;;;;;;;;4975450;28;19957;-56
2022/10/16 01:08:04;;;;;;;;;;;;;;;;;;4962004;28;19925;-56
2022/10/16 01:10:48;;;;;;;;;;;;;;;;;;4958806;28;19975;-56
2022/10/16 01:13:21;;;;;;;;;;;;;;;;;;4953624;28;20021;-56
2022/10/16 01:15:55;;;;;;;;;;;;;;;;;;4963895;28;19926;-56
2022/10/16 01:18:35;;;;;;;;;;;;;;;;;;4960630;28;20013;-56
2022/10/16 01:21:04;;;;;;;;;;;;;;;;;;4957935;28;19926;-56
2022/10/16 01:23:45;;;;;;;;;;;;;;;;;;4961730;28;19980;-56
2022/10/16 01:26:10;;;;;;;;;;;;;;;;;;4956548;28;20036;-56
2022/10/16 01:28:47;;;;;;;;;;;;;;;;;;4967250;28;19988;-56
2022/10/16 01:31:14;;;;;;;;;;;;;;;;;;4960223;28;19918;-56
2022/10/16 01:33:42;;;;;;;;;;;;;;;;;;4959785;28;19926;-57
2022/10/16 01:36:13;;;;;;;;;;;;;;;;;;4962462;28;19918;-56
2022/10/16 01:38:39;;;;;;;;;;;;;;;;;;4958189;28;19918;-56
2022/10/16 01:41:17;;;;;;;;;;;;;;;;;;4967359;28;19918;-56
2022/10/16 01:43:46;;;;;;;;;;;;;;;;;;4966422;28;19922;-56
2022/10/16 01:46:13;;;;;;;;;;;;;;;;;;4967408;28;19918;-56
2022/10/16 01:48:39;;;;;;;;;;;;;;;;;;4967924;28;19922;-57
2022/10/16 01:51:12;;;;;;;;;;;;;;;;;;4967597;28;20023;-56
2022/10/16 01:53:38;;;;;;;;;;;;;;;;;;4960525;28;19947;-56
2022/10/16 01:56:05;;;;;;;;;;;;;;;;;;4960744;28;19918;-57
2022/10/16 01:58:34;;;;;;;;;;;;;;;;;;4962270;28;19918;-57
2022/10/16 02:00:59;;;;;;;;;;;;;;;;;;4967623;28;19926;-56
2022/10/16 02:03:25;;;;;;;;;;;;;;;;;;4966314;28;20133;-56
2022/10/16 02:05:55;;;;;;;;;;;;;;;;;;4966939;28;19918;-56
2022/10/16 02:08:22;;;;;;;;;;;;;;;;;;4955452;28;20388;-56
2022/10/16 02:10:47;;;;;;;;;;;;;;;;;;4966317;28;19929;-57
2022/10/16 02:13:18;;;;;;;;;;;;;;;;;;4961432;28;19918;-56
2022/10/16 02:15:44;;;;;;;;;;;;;;;;;;4967169;28;19930;-56
2022/10/16 02:18:10;;;;;;;;;;;;;;;;;;4963663;28;19930;-57
2022/10/16 02:20:50;;;;;;;;;;;;;;;;;;4961492;28;19918;-56
2022/10/16 02:23:19;;;;;;;;;;;;;;;;;;4963844;28;19918;-56
2022/10/16 02:25:46;;;;;;;;;;;;;;;;;;4961422;28;19919;-56
2022/10/16 02:28:24;;;;;;;;;;;;;;;;;;4966679;28;19926;-56
2022/10/16 02:30:59;;;;;;;;;;;;;;;;;;4966150;28;19965;-56
2022/10/16 02:33:25;;;;;;;;;;;;;;;;;;4964835;28;19918;-56
2022/10/16 02:35:51;;;;;;;;;;;;;;;;;;4958631;28;20368;-56
2022/10/16 02:38:17;;;;;;;;;;;;;;;;;;4962553;28;19919;-56
2022/10/16 02:40:42;;;;;;;;;;;;;;;;;;4965485;28;19922;-56
2022/10/16 02:43:08;;;;;;;;;;;;;;;;;;4966072;28;19925;-56
2022/10/16 02:45:34;;;;;;;;;;;;;;;;;;4964461;28;19918;-56
2022/10/16 02:47:59;;;;;;;;;;;;;;;;;;4960862;28;19940;-56
2022/10/16 02:50:25;;;;;;;;;;;;;;;;;;4961212;28;19953;-56
2022/10/16 02:52:50;;;;;;;;;;;;;;;;;;4960741;28;20109;-56
2022/10/16 02:55:15;;;;;;;;;;;;;;;;;;4964106;28;19919;-56
2022/10/16 02:57:41;;;;;;;;;;;;;;;;;;4961149;28;20370;-56
2022/10/16 03:00:07;;;;;;;;;;;;;;;;;;4959015;28;19929;-56
2022/10/16 03:02:33;;;;;;;;;;;;;;;;;;4963832;28;19933;-56
2022/10/16 03:04:58;;;;;;;;;;;;;;;;;;4956860;28;20173;-55
2022/10/16 03:07:23;;;;;;;;;;;;;;;;;;4956192;28;19918;-58
2022/10/16 03:09:48;;;;;;;;;;;;;;;;;;4964583;28;19923;-57
2022/10/16 03:12:14;;;;;;;;;;;;;;;;;;4964257;28;19918;-58
2022/10/16 03:14:40;;;;;;;;;;;;;;;;;;4967256;28;19919;-57
2022/10/16 03:17:05;;;;;;;;;;;;;;;;;;4961548;28;20291;-58
2022/10/16 03:19:30;;;;;;;;;;;;;;;;;;4961495;28;19925;-57
2022/10/16 03:21:55;;;;;;;;;;;;;;;;;;4957032;28;19928;-57
2022/10/16 03:24:21;;;;;;;;;;;;;;;;;;4966564;28;20412;-56
2022/10/16 03:26:46;;;;;;;;;;;;;;;;;;4962430;28;19918;-55
2022/10/16 03:29:11;;;;;;;;;;;;;;;;;;4966404;28;19989;-56
2022/10/16 03:31:37;;;;;;;;;;;;;;;;;;4964087;28;19918;-56
2022/10/16 03:34:02;;;;;;;;;;;;;;;;;;4958544;28;20403;-56
2022/10/16 03:36:27;;;;;;;;;;;;;;;;;;4957848;28;19919;-56
2022/10/16 03:38:52;;;;;;;;;;;;;;;;;;4963638;28;19922;-56
2022/10/16 03:41:18;;;;;;;;;;;;;;;;;;4966753;28;20024;-55
2022/10/16 03:43:43;;;;;;;;;;;;;;;;;;4963634;28;19925;-57
2022/10/16 03:46:08;;;;;;;;;;;;;;;;;;4963611;28;19918;-57
2022/10/16 03:48:34;;;;;;;;;;;;;;;;;;4962231;28;19922;-58
2022/10/16 03:50:59;;;;;;;;;;;;;;;;;;4959821;28;19918;-57
2022/10/16 03:53:24;;;;;;;;;;;;;;;;;;4960263;28;19967;-57
2022/10/16 03:55:50;;;;;;;;;;;;;;;;;;4962795;28;19924;-57
2022/10/16 03:58:15;;;;;;;;;;;;;;;;;;4963456;28;20300;-57
2022/10/16 04:00:44;;;;;;;;;;;;;;;;;;4959495;28;19926;-57
2022/10/16 04:03:10;;;;;;;;;;;;;;;;;;4959444;28;19926;-56
2022/10/16 04:05:35;;;;;;;;;;;;;;;;;;4955509;28;19925;-56
2022/10/16 04:08:00;;;;;;;;;;;;;;;;;;4960711;28;19927;-56
2022/10/16 04:10:26;;;;;;;;;;;;;;;;;;4955240;28;20400;-57
2022/10/16 04:12:51;;;;;;;;;;;;;;;;;;4965605;28;19980;-57
2022/10/16 04:15:17;;;;;;;;;;;;;;;;;;4957234;28;20277;-57
2022/10/16 04:17:42;;;;;;;;;;;;;;;;;;4955948;28;19933;-57
2022/10/16 04:20:07;;;;;;;;;;;;;;;;;;4953434;28;19925;-57
2022/10/16 04:22:33;;;;;;;;;;;;;;;;;;4963857;28;19934;-57
2022/10/16 04:24:58;;;;;;;;;;;;;;;;;;4955333;28;20001;-57
2022/10/16 04:27:23;;;;;;;;;;;;;;;;;;4960091;28;20345;-57
2022/10/16 04:29:49;;;;;;;;;;;;;;;;;;4959492;28;19923;-57
2022/10/16 04:32:14;;;;;;;;;;;;;;;;;;4960583;28;19963;-56
2022/10/16 04:34:40;;;;;;;;;;;;;;;;;;4963189;28;19918;-57
2022/10/16 04:37:05;;;;;;;;;;;;;;;;;;4965957;28;20036;-58
2022/10/16 04:39:31;;;;;;;;;;;;;;;;;;4963063;28;20327;-57
2022/10/16 04:41:56;;;;;;;;;;;;;;;;;;4957032;28;20016;-57
2022/10/16 04:44:21;;;;;;;;;;;;;;;;;;4965880;28;19918;-57
2022/10/16 04:46:47;;;;;;;;;;;;;;;;;;4964251;28;19918;-57
2022/10/16 04:49:12;;;;;;;;;;;;;;;;;;4966684;28;20398;-57
2022/10/16 04:51:37;;;;;;;;;;;;;;;;;;4955976;28;19919;-57
2022/10/16 04:54:02;;;;;;;;;;;;;;;;;;4962225;28;19931;-57
2022/10/16 04:56:28;;;;;;;;;;;;;;;;;;4960916;28;20021;-56
2022/10/16 04:58:53;;;;;;;;;;;;;;;;;;4960582;28;19968;-57
2022/10/16 05:01:18;;;;;;;;;;;;;;;;;;4954828;28;19918;-57
2022/10/16 05:03:43;;;;;;;;;;;;;;;;;;4958262;28;19918;-59
2022/10/16 05:06:09;;;;;;;;;;;;;;;;;;4951844;28;19964;-59
2022/10/16 05:08:34;;;;;;;;;;;;;;;;;;4957384;28;19922;-59
2022/10/16 05:11:00;;;;;;;;;;;;;;;;;;4958089;28;20368;-59
2022/10/16 05:13:25;;;;;;;;;;;;;;;;;;4961439;28;20307;-59
2022/10/16 05:15:51;;;;;;;;;;;;;;;;;;4957350;28;19918;-59
2022/10/16 05:18:16;;;;;;;;;;;;;;;;;;4967054;28;20021;-59
2022/10/16 05:20:42;;;;;;;;;;;;;;;;;;4965518;28;19928;-59
2022/10/16 05:23:07;;;;;;;;;;;;;;;;;;4965201;28;20009;-60
2022/10/16 05:25:32;;;;;;;;;;;;;;;;;;4966306;28;19918;-60
2022/10/16 05:27:58;;;;;;;;;;;;;;;;;;4969510;28;20376;-60
2022/10/16 05:30:23;;;;;;;;;;;;;;;;;;4963416;28;19918;-59
2022/10/16 05:32:49;;;;;;;;;;;;;;;;;;4965968;28;20353;-60
2022/10/16 05:35:15;;;;;;;;;;;;;;;;;;4967130;28;19929;-59
2022/10/16 05:37:40;;;;;;;;;;;;;;;;;;4961047;28;19914;-59
2022/10/16 05:40:06;;;;;;;;;;;;;;;;;;4960311;28;20252;-59
2022/10/16 05:42:31;;;;;;;;;;;;;;;;;;4959306;28;20384;-59
2022/10/16 05:44:56;;;;;;;;;;;;;;;;;;4961000;28;20392;-59
2022/10/16 05:47:22;;;;;;;;;;;;;;;;;;4964277;28;19980;-59
2022/10/16 05:49:47;;;;;;;;;;;;;;;;;;4964200;28;20388;-59
2022/10/16 05:52:12;;;;;;;;;;;;;;;;;;4985972;28;19966;-59
2022/10/16 05:54:38;;;;;;;;;;;;;;;;;;4984426;28;19918;-59
2022/10/16 05:57:05;;;;;;;;;;;;;;;;;;4985096;28;20280;-59
2022/10/16 05:59:30;;;;;;;;;;;;;;;;;;4972560;28;19964;-59
2022/10/16 06:01:56;;;;;;;;;;;;;;;;;;4982966;28;19973;-59
2022/10/16 06:04:21;;;;;;;;;;;;;;;;;;4972269;28;19922;-60
2022/10/16 06:06:46;;;;;;;;;;;;;;;;;;4964895;28;19929;-59
2022/10/16 06:09:11;;;;;;;;;;;;;;;;;;4990296;28;20409;-59
2022/10/16 06:11:37;;;;;;;;;;;;;;;;;;4994779;28;19964;-59
2022/10/16 06:14:06;;;;;;;;;;;;;;;;;;4994104;28;19929;-59
2022/10/16 06:16:31;;;;;;;;;;;;;;;;;;4985520;28;19976;-60
2022/10/16 06:18:57;;;;;;;;;;;;;;;;;;4980774;28;19918;-59
2022/10/16 06:21:27;;;;;;;;;;;;;;;;;;4967811;28;19922;-59
2022/10/16 06:23:53;;;;;;;;;;;;;;;;;;4968634;28;19922;-59
2022/10/16 06:26:20;;;;;;;;;;;;;;;;;;4965918;28;19918;-59
2022/10/16 06:28:45;;;;;;;;;;;;;;;;;;4963205;28;19922;-59
2022/10/16 06:31:11;;;;;;;;;;;;;;;;;;4961201;28;20342;-58
2022/10/16 06:33:37;;;;;;;;;;;;;;;;;;4956316;28;19926;-58
2022/10/16 06:36:04;;;;;;;;;;;;;;;;;;4963968;28;20465;-58
2022/10/16 06:38:30;;;;;;;;;;;;;;;;;;4963637;28;19937;-59
2022/10/16 06:40:55;;;;;;;;;;;;;;;;;;4961024;28;19922;-58
2022/10/16 06:43:20;;;;;;;;;;;;;;;;;;4960091;28;19918;-59
2022/10/16 06:45:52;;;;;;;;;;;;;;;;;;4957383;28;20394;-59
2022/10/16 06:48:18;;;;;;;;;;;;;;;;;;4965202;28;19929;-59
2022/10/16 06:50:43;;;;;;;;;;;;;;;;;;4964811;28;20384;-58
2022/10/16 06:53:08;;;;;;;;;;;;;;;;;;4961738;28;19919;-58
2022/10/16 06:55:34;;;;;;;;;;;;;;;;;;4955545;28;21614;-58
2022/10/16 06:57:59;;;;;;;;;;;;;;;;;;4959974;28;20422;-59
2022/10/16 07:00:24;;;;;;;;;;;;;;;;;;4958404;28;19926;-59
2022/10/16 07:02:49;;;;;;;;;;;;;;;;;;4957785;28;19984;-59
2022/10/16 07:05:15;;;;;;;;;;;;;;;;;;4953924;28;19925;-59
2022/10/16 07:07:40;;;;;;;;;;;;;;;;;;4955065;28;19919;-59
2022/10/16 07:10:05;;;;;;;;;;;;;;;;;;4955530;28;19961;-59
2022/10/16 07:12:31;;;;;;;;;;;;;;;;;;4959503;28;20439;-59
2022/10/16 07:14:56;;;;;;;;;;;;;;;;;;4963479;28;20012;-59
2022/10/16 07:17:21;;;;;;;;;;;;;;;;;;4963658;28;19922;-59
2022/10/16 07:19:46;;;;;;;;;;;;;;;;;;4965581;28;19940;-59
2022/10/16 07:22:12;;;;;;;;;;;;;;;;;;4960846;28;20391;-59
2022/10/16 07:24:37;;;;;;;;;;;;;;;;;;4960502;28;19972;-59
2022/10/16 07:27:02;;;;;;;;;;;;;;;;;;4959784;28;19975;-59
2022/10/16 07:29:28;;;;;;;;;;;;;;;;;;4966149;28;19926;-59
2022/10/16 07:31:53;;;;;;;;;;;;;;;;;;4962715;28;20150;-59
2022/10/16 07:34:19;;;;;;;;;;;;;;;;;;4959859;28;19918;-59
2022/10/16 07:36:44;;;;;;;;;;;;;;;;;;4962791;28;20047;-58
2022/10/16 07:39:09;;;;;;;;;;;;;;;;;;4957239;28;20376;-59
2022/10/16 07:41:36;;;;;;;;;;;;;;;;;;4963164;28;19918;-59
2022/10/16 07:44:02;;;;;;;;;;;;;;;;;;4959597;28;19929;-58
2022/10/16 07:46:27;;;;;;;;;;;;;;;;;;4965301;28;19918;-59
2022/10/16 07:48:53;;;;;;;;;;;;;;;;;;4966121;28;22152;-59
2022/10/16 07:51:19;;;;;;;;;;;;;;;;;;4960012;28;19957;-58
2022/10/16 07:53:44;;;;;;;;;;;;;;;;;;4961701;28;19934;-59
2022/10/16 07:56:10;;;;;;;;;;;;;;;;;;4957201;28;19919;-59
2022/10/16 07:58:37;;;;;;;;;;;;;;;;;;4955228;28;19918;-60
2022/10/16 08:01:06;;;;;;;;;;;;;;;;;;4960995;28;19966;-59
2022/10/16 08:03:32;;;;;;;;;;;;;;;;;;4952990;28;19918;-59
2022/10/16 08:05:57;;;;;;;;;;;;;;;;;;4960342;28;20020;-60
2022/10/16 08:08:23;;;;;;;;;;;;;;;;;;4959112;28;19977;-60
2022/10/16 08:10:49;;;;;;;;;;;;;;;;;;4963659;28;19945;-59
2022/10/16 08:13:15;;;;;;;;;;;;;;;;;;4961911;28;19929;-59
2022/10/16 08:15:41;;;;;;;;;;;;;;;;;;4955853;28;20336;-60
2022/10/16 08:18:06;;;;;;;;;;;;;;;;;;4958096;28;20383;-59
2022/10/16 08:20:32;;;;;;;;;;;;;;;;;;4956355;28;19922;-60
2022/10/16 08:22:58;;;;;;;;;;;;;;;;;;4962987;28;20027;-60
2022/10/16 08:25:23;;;;;;;;;;;;;;;;;;4964796;28;19926;-60
2022/10/16 08:27:49;;;;;;;;;;;;;;;;;;4962192;28;19922;-60
2022/10/16 08:30:15;;;;;;;;;;;;;;;;;;4961944;28;20399;-59
2022/10/16 08:32:41;;;;;;;;;;;;;;;;;;4962743;28;20013;-59
2022/10/16 08:35:08;;;;;;;;;;;;;;;;;;4957219;28;19918;-60
2022/10/16 08:37:34;;;;;;;;;;;;;;;;;;4964793;28;20362;-60
2022/10/16 08:39:59;;;;;;;;;;;;;;;;;;4964692;28;19918;-60
2022/10/16 08:42:27;;;;;;;;;;;;;;;;;;4960995;28;19957;-60
2022/10/16 08:44:52;;;;;;;;;;;;;;;;;;4961385;28;20612;-60
2022/10/16 08:47:36;;;;;;;;;;;;;;;;;;4958405;28;19918;-59
2022/10/16 08:50:08;;;;;;;;;;;;;;;;;;4957399;28;20013;-59
2022/10/16 08:52:35;;;;;;;;;;;;;;;;;;4961796;28;20001;-60
2022/10/16 08:55:01;;;;;;;;;;;;;;;;;;4957468;28;20037;-60
2022/10/16 08:57:27;;;;;;;;;;;;;;;;;;4954008;28;19942;-60
2022/10/16 08:59:54;;;;;;;;;;;;;;;;;;4952973;28;20311;-59
2022/10/16 09:02:32;;;;;;;;;;;;;;;;;;4948308;28;20415;-59
2022/10/16 09:05:16;;;;;;;;;;;;;;;;;;4961956;28;20069;-59
2022/10/16 09:07:44;;;;;;;;;;;;;;;;;;4965433;28;19930;-59
2022/10/16 09:10:23;;;;;;;;;;;;;;;;;;4961190;28;19929;-59
2022/10/16 09:12:58;;;;;;;;;;;;;;;;;;4964448;28;19917;-59
2022/10/16 09:15:41;;;;;;;;;;;;;;;;;;4962096;28;19918;-59
2022/10/16 09:18:15;;;;;;;;;;;;;;;;;;4963380;28;19948;-59
2022/10/16 09:20:40;;;;;;;;;;;;;;;;;;4965995;28;19919;-59
2022/10/16 09:23:21;;;;;;;;;;;;;;;;;;4963176;28;19929;-60
2022/10/16 09:25:48;;;;;;;;;;;;;;;;;;4957250;28;19969;-59
2022/10/16 09:28:14;;;;;;;;;;;;;;;;;;4959616;28;19927;-59
2022/10/16 09:30:39;;;;;;;;;;;;;;;;;;4962194;28;19918;-58
2022/10/16 09:33:05;;;;;;;;;;;;;;;;;;4963236;28;19918;-58
2022/10/16 09:36:03;;;;;;;;;;;;;;;;;;4963326;28;20442;-59
2022/10/16 09:38:29;;;;;;;;;;;;;;;;;;4964019;28;19930;-60
2022/10/16 09:40:56;;;;;;;;;;;;;;;;;;4961410;28;19919;-59
2022/10/16 09:43:32;;;;;;;;;;;;;;;;;;4966468;28;19925;-58
2022/10/16 09:45:59;;;;;;;;;;;;;;;;;;4956745;28;20013;-59
2022/10/16 09:48:27;;;;;;;;;;;;;;;;;;4956440;28;20030;-60
2022/10/16 09:50:59;;;;;;;;;;;;;;;;;;4957144;28;20008;-59
2022/10/16 09:53:26;;;;;;;;;;;;;;;;;;4952288;28;19926;-60
2022/10/16 09:55:52;;;;;;;;;;;;;;;;;;4955412;28;19918;-60
2022/10/16 09:58:18;;;;;;;;;;;;;;;;;;4955449;28;19919;-59
2022/10/16 10:00:49;;;;;;;;;;;;;;;;;;4955778;28;20296;-60
2022/10/16 10:03:30;;;;;;;;;;;;;;;;;;4964268;28;19925;-58
2022/10/16 10:05:55;;;;;;;;;;;;;;;;;;4958424;28;19918;-58
2022/10/16 10:08:20;;;;;;;;;;;;;;;;;;4961580;28;20281;-59
2022/10/16 10:10:48;;;;;;;;;;;;;;;;;;4963620;28;20013;-60
2022/10/16 10:13:20;;;;;;;;;;;;;;;;;;4966801;28;19996;-59
2022/10/16 10:15:45;;;;;;;;;;;;;;;;;;4961456;28;19926;-60
2022/10/16 10:18:18;;;;;;;;;;;;;;;;;;4964356;28;19923;-60
2022/10/16 10:20:44;;;;;;;;;;;;;;;;;;4960136;28;20018;-60
2022/10/16 10:23:22;;;;;;;;;;;;;;;;;;4957788;28;20001;-60
2022/10/16 10:26:10;;;;;;;;;;;;;;;;;;4967779;28;19953;-59
2022/10/16 10:28:44;;;;;;;;;;;;;;;;;;4964312;28;19922;-59
2022/10/16 10:31:24;;;;;;;;;;;;;;;;;;4960862;28;19925;-59
2022/10/16 10:33:57;;;;;;;;;;;;;;;;;;4967301;28;19934;-59
2022/10/16 10:36:28;;;;;;;;;;;;;;;;;;4963488;28;19926;-58
2022/10/16 10:39:02;;;;;;;;;;;;;;;;;;4962005;28;19933;-59
2022/10/16 10:41:39;;;;;;;;;;;;;;;;;;4963999;28;20355;-59
2022/10/16 10:44:08;;;;;;;;;;;;;;;;;;4960464;28;19922;-59
2022/10/16 10:46:36;;;;;;;;;;;;;;;;;;4959772;28;19929;-59
2022/10/16 10:49:01;;;;;;;;;;;;;;;;;;4961266;28;19984;-59
2022/10/16 10:51:26;;;;;;;;;;;;;;;;;;4960920;28;20356;-60
2022/10/16 10:53:58;;;;;;;;;;;;;;;;;;4965542;28;20858;-60
2022/10/16 10:56:39;;;;;;;;;;;;;;;;;;4966482;28;20277;-59
2022/10/16 10:59:07;;;;;;;;;;;;;;;;;;4954185;28;19925;-59
2022/10/16 11:01:55;;;;;;;;;;;;;;;;;;4955531;28;19934;-59
2022/10/16 11:04:39;;;;;;;;;;;;;;;;;;4961466;28;20004;-59
2022/10/16 11:07:09;;;;;;;;;;;;;;;;;;4960658;28;19918;-60
2022/10/16 11:09:37;;;;;;;;;;;;;;;;;;4965516;28;19968;-59
2022/10/16 11:12:10;;;;;;;;;;;;;;;;;;4959413;28;20018;-60
2022/10/16 11:14:59;;;;;;;;;;;;;;;;;;4963176;28;20299;-60
2022/10/16 11:17:26;;;;;;;;;;;;;;;;;;4970749;28;19918;-60
2022/10/16 11:19:52;;;;;;;;;;;;;;;;;;4964270;28;19953;-60
2022/10/16 11:22:25;;;;;;;;;;;;;;;;;;4966236;28;20003;-61
2022/10/16 11:25:06;;;;;;;;;;;;;;;;;;4957798;28;19980;-61
2022/10/16 11:27:44;;;;;;;;;;;;;;;;;;4964065;28;19925;-61
2022/10/16 11:30:29;;;;;;;;;;;;;;;;;;4958638;28;19922;-60
2022/10/16 11:33:13;;;;;;;;;;;;;;;;;;4963780;28;20407;-60
2022/10/16 11:35:42;;;;;;;;;;;;;;;;;;4963745;28;19994;-60
2022/10/16 11:38:24;;;;;;;;;;;;;;;;;;4962106;28;19926;-61
2022/10/16 11:40:52;;;;;;;;;;;;;;;;;;4959747;28;19918;-60
2022/10/16 11:43:21;;;;;;;;;;;;;;;;;;4958962;28;19971;-60
2022/10/16 11:45:52;;;;;;;;;;;;;;;;;;4961920;28;19918;-61
2022/10/16 11:48:17;;;;;;;;;;;;;;;;;;4966010;28;19952;-61
2022/10/16 11:50:50;;;;;;;;;;;;;;;;;;4961508;28;20356;-60
2022/10/16 11:53:21;;;;;;;;;;;;;;;;;;4958787;28;19918;-61
2022/10/16 11:55:46;;;;;;;;;;;;;;;;;;4955159;28;19980;-61
2022/10/16 11:58:17;;;;;;;;;;;;;;;;;;4955267;28;20404;-61
2022/10/16 12:00:52;;;;;;;;;;;;;;;;;;4964850;28;19926;-61
2022/10/16 12:03:17;;;;;;;;;;;;;;;;;;4961400;28;19918;-61
2022/10/16 12:05:55;;;;;;;;;;;;;;;;;;4963577;28;20476;-61
2022/10/16 12:08:20;;;;;;;;;;;;;;;;;;4957525;28;19918;-60
2022/10/16 12:10:47;;;;;;;;;;;;;;;;;;4961601;28;21318;-60
2022/10/16 12:13:31;;;;;;;;;;;;;;;;;;4959860;28;20312;-60
2022/10/16 12:16:05;;;;;;;;;;;;;;;;;;4964339;28;19925;-60
2022/10/16 12:18:31;;;;;;;;;;;;;;;;;;4962361;28;20012;-62
2022/10/16 12:21:05;;;;;;;;;;;;;;;;;;4965576;28;20407;-61
2022/10/16 12:23:31;;;;;;;;;;;;;;;;;;4962731;28;20424;-60
2022/10/16 12:26:00;;;;;;;;;;;;;;;;;;4955665;28;19919;-61
2022/10/16 12:28:32;;;;;;;;;;;;;;;;;;4959878;28;19918;-59
2022/10/16 12:31:00;;;;;;;;;;;;;;;;;;4967122;28;20329;-60
2022/10/16 12:33:36;;;;;;;;;;;;;;;;;;4957027;28;19931;-60
2022/10/16 12:36:07;;;;;;;;;;;;;;;;;;4957437;28;19984;-60
2022/10/16 12:38:35;;;;;;;;;;;;;;;;;;4959680;28;20408;-61
2022/10/16 12:41:00;;;;;;;;;;;;;;;;;;4958212;28;19918;-60
2022/10/16 12:43:37;;;;;;;;;;;;;;;;;;4957248;28;19918;-60
2022/10/16 12:46:26;;;;;;;;;;;;;;;;;;4965170;28;19942;-62
2022/10/16 12:48:51;;;;;;;;;;;;;;;;;;4951495;28;19971;-60
2022/10/16 12:51:24;;;;;;;;;;;;;;;;;;4955373;28;20013;-60
2022/10/16 12:54:03;;;;;;;;;;;;;;;;;;4960621;28;19949;-61
2022/10/16 12:56:31;;;;;;;;;;;;;;;;;;4955631;28;19922;-61
2022/10/16 12:59:03;;;;;;;;;;;;;;;;;;4958774;28;19926;-61
2022/10/16 13:01:31;;;;;;;;;;;;;;;;;;4957923;28;19925;-61
2022/10/16 13:04:04;;;;;;;;;;;;;;;;;;4955166;28;19918;-62
2022/10/16 13:06:38;;;;;;;;;;;;;;;;;;4957033;28;19918;-61
2022/10/16 13:09:10;;;;;;;;;;;;;;;;;;4964240;28;19921;-62
2022/10/16 13:11:43;;;;;;;;;;;;;;;;;;4961363;28;19931;-61
2022/10/16 13:14:15;;;;;;;;;;;;;;;;;;4962742;28;20427;-62
2022/10/16 13:16:43;;;;;;;;;;;;;;;;;;4959009;28;20377;-61
2022/10/16 13:19:14;;;;;;;;;;;;;;;;;;4956337;28;19919;-61
2022/10/16 13:21:47;;;;;;;;;;;;;;;;;;4960492;28;19919;-62
2022/10/16 13:24:24;;;;;;;;;;;;;;;;;;4969805;28;19926;-61
2022/10/16 13:26:57;;;;;;;;;;;;;;;;;;4959453;28;20295;-61
2022/10/16 13:29:23;;;;;;;;;;;;;;;;;;4959538;28;19918;-62
2022/10/16 13:31:48;;;;;;;;;;;;;;;;;;4964028;28;19926;-62
2022/10/16 13:34:18;;;;;;;;;;;;;;;;;;4958477;28;19933;-60
2022/10/16 13:36:51;;;;;;;;;;;;;;;;;;4949565;28;19953;-61
2022/10/16 13:39:42;;;;;;;;;;;;;;;;;;4958739;28;19918;-61
2022/10/16 13:42:15;;;;;;;;;;;;;;;;;;4959627;28;20369;-61
2022/10/16 13:44:44;;;;;;;;;;;;;;;;;;4965805;28;19987;-61
2022/10/16 13:47:20;;;;;;;;;;;;;;;;;;4961823;28;19922;-59
2022/10/16 13:49:45;;;;;;;;;;;;;;;;;;4955932;28;20371;-59
2022/10/16 13:52:20;;;;;;;;;;;;;;;;;;4967083;28;19958;-59
2022/10/16 13:54:46;;;;;;;;;;;;;;;;;;4961926;28;20408;-58
2022/10/16 13:57:14;;;;;;;;;;;;;;;;;;4953352;28;19945;-59
2022/10/16 13:59:41;;;;;;;;;;;;;;;;;;4962964;28;20425;-58
2022/10/16 14:02:15;;;;;;;;;;;;;;;;;;4963842;28;19918;-59
2022/10/16 14:04:41;;;;;;;;;;;;;;;;;;4957673;28;20300;-56
2022/10/16 14:07:13;;;;;;;;;;;;;;;;;;4964853;28;19918;-58
2022/10/16 14:09:39;;;;;;;;;;;;;;;;;;4959118;28;19919;-59
2022/10/16 14:12:09;;;;;;;;;;;;;;;;;;4964178;28;19971;-58
2022/10/16 14:14:35;;;;;;;;;;;;;;;;;;4965308;28;19929;-59
2022/10/16 14:17:01;;;;;;;;;;;;;;;;;;4966020;28;19922;-59
2022/10/16 14:19:29;;;;;;;;;;;;;;;;;;4968327;28;20349;-59
2022/10/16 14:21:55;;;;;;;;;;;;;;;;;;4964287;28;19926;-59
2022/10/16 14:24:27;;;;;;;;;;;;;;;;;;4962232;28;19919;-59
2022/10/16 14:26:54;;;;;;;;;;;;;;;;;;4959216;28;19994;-58
2022/10/16 14:29:20;;;;;;;;;;;;;;;;;;4966859;28;19918;-58
2022/10/16 14:32:02;;;;;;;;;;;;;;;;;;4961765;28;20053;-59
2022/10/16 14:34:39;;;;;;;;;;;;;;;;;;4960596;28;19929;-59
2022/10/16 14:37:22;;;;;;;;;;;;;;;;;;4961759;28;19918;-58
2022/10/16 14:39:51;;;;;;;;;;;;;;;;;;4959458;28;20300;-58
2022/10/16 14:42:19;;;;;;;;;;;;;;;;;;4963281;28;20450;-61
2022/10/16 14:44:44;;;;;;;;;;;;;;;;;;4965413;28;20429;-61
2022/10/16 14:47:13;;;;;;;;;;;;;;;;;;4966100;28;19924;-61
2022/10/16 14:49:38;;;;;;;;;;;;;;;;;;4960701;28;20021;-61
2022/10/16 14:52:08;;;;;;;;;;;;;;;;;;4958996;28;20009;-61
2022/10/16 14:54:33;;;;;;;;;;;;;;;;;;4961983;28;20423;-61
2022/10/16 14:56:58;;;;;;;;;;;;;;;;;;4958357;28;19918;-61
2022/10/16 14:59:45;;;;;;;;;;;;;;;;;;4965972;28;19918;-62
2022/10/16 15:02:22;;;;;;;;;;;;;;;;;;4962945;28;20044;-61
2022/10/16 15:04:47;;;;;;;;;;;;;;;;;;4972317;28;19924;-61
2022/10/16 15:07:13;;;;;;;;;;;;;;;;;;4959289;28;19922;-62
2022/10/16 15:09:38;;;;;;;;;;;;;;;;;;4968336;28;19925;-61
2022/10/16 15:12:04;;;;;;;;;;;;;;;;;;4965577;28;19930;-61
2022/10/16 15:14:30;;;;;;;;;;;;;;;;;;4969688;28;19918;-61
2022/10/16 15:16:55;;;;;;;;;;;;;;;;;;4966768;28;19918;-61
2022/10/16 15:19:20;;;;;;;;;;;;;;;;;;4962925;28;19918;-62
2022/10/16 15:21:45;;;;;;;;;;;;;;;;;;4964988;28;19918;-62
2022/10/16 15:24:12;;;;;;;;;;;;;;;;;;4965373;28;20378;-61
2022/10/16 15:26:38;;;;;;;;;;;;;;;;;;4963383;28;19962;-60
2022/10/16 15:29:03;;;;;;;;;;;;;;;;;;4968536;28;19960;-60
2022/10/16 15:31:29;;;;;;;;;;;;;;;;;;4971415;28;19969;-60
2022/10/16 15:33:58;;;;;;;;;;;;;;;;;;4961179;28;19933;-57
2022/10/16 15:36:27;;;;;;;;;;;;;;;;;;4959620;28;19926;-60
2022/10/16 15:38:53;;;;;;;;;;;;;;;;;;4959414;28;20514;-60
2022/10/16 15:41:18;;;;;;;;;;;;;;;;;;4962892;28;19971;-59
2022/10/16 15:43:44;;;;;;;;;;;;;;;;;;4960989;28;19914;-61
2022/10/16 15:46:11;;;;;;;;;;;;;;;;;;4974981;28;19919;-60
2022/10/16 15:48:36;;;;;;;;;;;;;;;;;;4960558;28;20296;-60
2022/10/16 15:51:04;;;;;;;;;;;;;;;;;;4966401;28;19922;-60
2022/10/16 15:53:29;;;;;;;;;;;;;;;;;;4960155;28;19924;-60
2022/10/16 15:55:55;;;;;;;;;;;;;;;;;;4954358;28;19944;-60
2022/10/16 15:58:20;;;;;;;;;;;;;;;;;;4964437;28;20350;-60
2022/10/16 16:00:53;;;;;;;;;;;;;;;;;;4966932;28;19925;-58
2022/10/16 16:03:18;;;;;;;;;;;;;;;;;;4962666;28;19918;-59
2022/10/16 16:05:44;;;;;;;;;;;;;;;;;;4963503;28;21763;-60
2022/10/16 16:08:09;;;;;;;;;;;;;;;;;;4965012;28;19915;-60
2022/10/16 16:10:34;;;;;;;;;;;;;;;;;;4962889;28;19918;-59
2022/10/16 16:12:59;;;;;;;;;;;;;;;;;;4962912;28;20350;-59
2022/10/16 16:15:25;;;;;;;;;;;;;;;;;;4970431;28;19914;-59
2022/10/16 16:17:50;;;;;;;;;;;;;;;;;;4960948;28;19925;-59
2022/10/16 16:20:15;;;;;;;;;;;;;;;;;;4967521;28;19940;-59
2022/10/16 16:22:41;;;;;;;;;;;;;;;;;;4964460;28;20342;-59
2022/10/16 16:25:06;;;;;;;;;;;;;;;;;;4960380;28;19925;-59
2022/10/16 16:27:33;;;;;;;;;;;;;;;;;;4960710;28;19918;-60
2022/10/16 16:29:59;;;;;;;;;;;;;;;;;;4962949;28;19926;-59
2022/10/16 16:32:25;;;;;;;;;;;;;;;;;;4965102;28;20339;-60
2022/10/16 16:34:50;;;;;;;;;;;;;;;;;;4962931;28;20437;-59
2022/10/16 16:37:16;;;;;;;;;;;;;;;;;;4959616;28;19926;-59
2022/10/16 16:39:41;;;;;;;;;;;;;;;;;;4961281;28;19919;-59
2022/10/16 16:42:07;;;;;;;;;;;;;;;;;;4957802;28;19918;-60
2022/10/16 16:44:32;;;;;;;;;;;;;;;;;;4957623;28;19918;-59
2022/10/16 16:46:58;;;;;;;;;;;;;;;;;;4958814;28;19918;-59
2022/10/16 16:49:23;;;;;;;;;;;;;;;;;;4955881;28;19965;-59
2022/10/16 16:51:48;;;;;;;;;;;;;;;;;;4959122;28;20388;-60
2022/10/16 16:54:14;;;;;;;;;;;;;;;;;;4955741;28;20390;-59